Time;durP1;ratioP1;P1;durP2;ratioP2;P2;SDS_P1;SDS_P2;PMS_P1;PMS_P2;Temp;Humidity;BMP_temperature;BMP_pressure;BME280_temperature;BME280_humidity;BME280_pressure;Samples;Min_cycle;Max_cycle;Signal;HPM_P1;HPM_P2
2022/07/10 00:01:14;;;;;;;12.10;5.40;;;;;;;;;;6198599;28;20262;-82
2022/07/10 00:04:15;;;;;;;11.90;6.33;;;;;;;;;;6198090;28;20046;-82
2022/07/10 00:07:15;;;;;;;9.07;5.37;;;;;;;;;;6201341;28;20336;-82
2022/07/10 00:10:15;;;;;;;9.70;5.57;;;;;;;;;;6199710;28;20366;-81
2022/07/10 00:13:16;;;;;;;12.40;5.88;;;;;;;;;;6202221;28;20029;-82
2022/07/10 00:16:16;;;;;;;10.33;5.13;;;;;;;;;;6196268;28;20033;-82
2022/07/10 00:19:16;;;;;;;8.53;5.07;;;;;;;;;;6200135;28;20284;-82
2022/07/10 00:22:16;;;;;;;10.67;5.83;;;;;;;;;;6205536;28;20799;-81
2022/07/10 00:25:17;;;;;;;17.10;5.57;;;;;;;;;;6201579;28;20072;-81
2022/07/10 00:28:17;;;;;;;18.20;6.68;;;;;;;;;;6200509;28;20018;-82
2022/07/10 00:31:17;;;;;;;9.50;6.00;;;;;;;;;;6201772;28;20088;-82
2022/07/10 00:34:17;;;;;;;10.20;5.50;;;;;;;;;;6201524;28;20424;-81
2022/07/10 00:37:18;;;;;;;11.87;5.57;;;;;;;;;;6200331;28;20281;-81
2022/07/10 00:40:18;;;;;;;10.23;6.68;;;;;;;;;;6202900;28;20026;-81
2022/07/10 00:43:18;;;;;;;17.80;6.80;;;;;;;;;;6202411;28;20402;-81
2022/07/10 00:46:20;;;;;;;8.97;5.73;;;;;;;;;;6203266;28;20257;-80
2022/07/10 00:49:20;;;;;;;13.38;6.30;;;;;;;;;;6201211;28;20270;-81
2022/07/10 00:52:21;;;;;;;13.87;7.27;;;;;;;;;;6200624;28;20025;-82
2022/07/10 00:55:21;;;;;;;14.15;5.53;;;;;;;;;;6202222;28;20482;-81
2022/07/10 00:58:22;;;;;;;15.25;6.45;;;;;;;;;;6206340;28;20026;-81
2022/07/10 01:01:22;;;;;;;18.38;6.72;;;;;;;;;;6201261;28;20541;-81
2022/07/10 01:04:23;;;;;;;9.75;5.85;;;;;;;;;;6200237;28;20038;-81
2022/07/10 01:07:24;;;;;;;10.52;5.63;;;;;;;;;;6200124;28;20019;-81
2022/07/10 01:10:24;;;;;;;10.90;5.78;;;;;;;;;;6200044;28;20076;-81
2022/07/10 01:13:25;;;;;;;9.80;5.57;;;;;;;;;;6200407;28;20339;-81
2022/07/10 01:16:25;;;;;;;11.93;5.87;;;;;;;;;;6200419;28;20026;-81
2022/07/10 01:19:25;;;;;;;15.60;5.20;;;;;;;;;;6199575;28;20653;-81
2022/07/10 01:22:25;;;;;;;19.13;5.85;;;;;;;;;;6200064;28;20261;-82
2022/07/10 01:25:26;;;;;;;10.02;5.43;;;;;;;;;;6201381;28;20410;-81
2022/07/10 01:28:26;;;;;;;11.50;6.00;;;;;;;;;;6201173;28;20478;-80
2022/07/10 01:31:27;;;;;;;10.27;5.45;;;;;;;;;;6199825;28;20641;-80
2022/07/10 01:34:27;;;;;;;11.57;5.95;;;;;;;;;;6199798;28;20054;-81
2022/07/10 01:37:27;;;;;;;12.55;6.10;;;;;;;;;;6200844;28;20053;-81
2022/07/10 01:40:27;;;;;;;12.27;6.43;;;;;;;;;;6200050;28;20046;-81
2022/07/10 01:43:28;;;;;;;12.18;5.72;;;;;;;;;;6194748;28;20415;-81
2022/07/10 01:46:28;;;;;;;11.57;5.57;;;;;;;;;;6201199;28;20026;-80
2022/07/10 01:49:28;;;;;;;14.43;6.97;;;;;;;;;;6199852;28;20308;-81
2022/07/10 01:52:29;;;;;;;13.70;8.05;;;;;;;;;;6199902;28;20022;-81
2022/07/10 01:55:29;;;;;;;12.45;7.53;;;;;;;;;;6200892;28;20088;-82
2022/07/10 01:58:29;;;;;;;16.02;8.02;;;;;;;;;;6204478;28;20495;-82
2022/07/10 02:01:30;;;;;;;15.60;7.90;;;;;;;;;;6199148;28;20030;-81
2022/07/10 02:04:42;;;;;;;13.77;7.85;;;;;;;;;;6196347;28;20030;-81
2022/07/10 02:07:43;;;;;;;14.18;7.57;;;;;;;;;;6203005;28;20049;-80
2022/07/10 02:10:44;;;;;;;14.50;7.73;;;;;;;;;;6199650;28;20117;-81
2022/07/10 02:13:45;;;;;;;12.75;7.57;;;;;;;;;;6204202;28;20397;-81
2022/07/10 02:16:45;;;;;;;14.80;7.97;;;;;;;;;;6196549;28;20018;-81
2022/07/10 02:19:46;;;;;;;14.83;7.90;;;;;;;;;;6197809;28;20023;-80
2022/07/10 02:22:46;;;;;;;15.40;8.33;;;;;;;;;;6197283;28;20273;-80
2022/07/10 02:25:46;;;;;;;11.73;7.00;;;;;;;;;;6198216;28;20333;-80
2022/07/10 02:28:46;;;;;;;13.07;7.35;;;;;;;;;;6194449;28;20113;-81
2022/07/10 02:31:46;;;;;;;16.20;7.32;;;;;;;;;;6214558;28;20030;-81
2022/07/10 02:34:47;;;;;;;11.07;6.07;;;;;;;;;;6202674;28;20050;-81
2022/07/10 02:37:47;;;;;;;13.05;6.70;;;;;;;;;;6201022;28;20284;-81
2022/07/10 02:40:47;;;;;;;15.10;6.77;;;;;;;;;;6198849;28;20390;-80
2022/07/10 02:43:47;;;;;;;13.17;7.40;;;;;;;;;;6201410;28;20015;-81
2022/07/10 02:46:48;;;;;;;13.75;6.82;;;;;;;;;;6200572;28;20033;-80
2022/07/10 02:49:48;;;;;;;10.82;6.53;;;;;;;;;;6197297;28;20028;-81
2022/07/10 02:52:48;;;;;;;11.17;7.10;;;;;;;;;;6198766;28;20026;-81
2022/07/10 02:55:48;;;;;;;13.85;6.97;;;;;;;;;;6200830;28;20270;-80
2022/07/10 02:58:48;;;;;;;15.95;6.68;;;;;;;;;;6199710;28;20116;-81
2022/07/10 03:01:49;;;;;;;14.00;7.97;;;;;;;;;;6196436;28;20397;-80
2022/07/10 03:04:49;;;;;;;16.02;7.03;;;;;;;;;;6196691;28;20253;-80
2022/07/10 03:07:49;;;;;;;11.73;7.57;;;;;;;;;;6195417;28;20026;-81
2022/07/10 03:10:49;;;;;;;13.30;6.15;;;;;;;;;;6196673;28;20033;-81
2022/07/10 03:13:50;;;;;;;11.73;6.25;;;;;;;;;;6198042;28;20118;-80
2022/07/10 03:16:50;;;;;;;11.23;5.70;;;;;;;;;;6209139;28;20102;-80
2022/07/10 03:19:50;;;;;;;14.60;6.83;;;;;;;;;;6205117;28;20297;-81
2022/07/10 03:22:50;;;;;;;13.27;6.20;;;;;;;;;;6199154;28;20253;-80
2022/07/10 03:25:51;;;;;;;15.43;6.37;;;;;;;;;;6204183;28;20291;-81
2022/07/10 03:28:51;;;;;;;11.87;6.97;;;;;;;;;;6198031;28;20258;-81
2022/07/10 03:31:51;;;;;;;12.43;5.83;;;;;;;;;;6201631;28;20316;-81
2022/07/10 03:34:52;;;;;;;10.15;5.45;;;;;;;;;;6196871;28;20328;-80
2022/07/10 03:37:52;;;;;;;11.43;6.35;;;;;;;;;;6187552;28;20019;-81
2022/07/10 03:40:52;;;;;;;10.00;5.53;;;;;;;;;;6201400;28;20489;-81
2022/07/10 03:43:52;;;;;;;8.87;5.10;;;;;;;;;;6213362;28;20046;-81
2022/07/10 03:46:52;;;;;;;7.57;4.82;;;;;;;;;;6202904;28;20045;-82
2022/07/10 03:49:53;;;;;;;11.80;5.65;;;;;;;;;;6211816;28;20688;-81
2022/07/10 03:52:53;;;;;;;11.25;5.18;;;;;;;;;;6205968;28;20026;-81
2022/07/10 03:55:54;;;;;;;8.75;3.80;;;;;;;;;;6203200;28;20417;-81
2022/07/10 03:58:54;;;;;;;10.10;4.63;;;;;;;;;;6203972;28;20026;-82
2022/07/10 04:01:54;;;;;;;8.40;4.03;;;;;;;;;;6207373;28;20022;-82
2022/07/10 04:04:54;;;;;;;9.27;4.77;;;;;;;;;;6201889;28;20018;-81
2022/07/10 04:07:56;;;;;;;8.88;4.55;;;;;;;;;;6202339;28;20018;-81
2022/07/10 04:10:56;;;;;;;;;;;;;;;;;;6203013;28;20492;-81
2022/07/10 04:13:57;;;;;;;9.52;4.68;;;;;;;;;;6217807;28;20254;-81
2022/07/10 04:16:57;;;;;;;7.75;4.72;;;;;;;;;;6202661;28;20049;-81
2022/07/10 04:19:57;;;;;;;6.73;4.47;;;;;;;;;;6205984;28;20026;-81
2022/07/10 04:22:57;;;;;;;8.10;4.57;;;;;;;;;;6206198;28;20097;-81
2022/07/10 04:25:57;;;;;;;7.70;3.80;;;;;;;;;;6205534;28;20065;-81
2022/07/10 04:28:58;;;;;;;8.97;4.27;;;;;;;;;;6202021;28;20041;-81
2022/07/10 04:31:58;;;;;;;9.80;3.80;;;;;;;;;;6204690;28;20064;-81
2022/07/10 04:34:59;;;;;;;7.20;3.47;;;;;;;;;;6202415;28;20089;-81
2022/07/10 04:37:59;;;;;;;8.63;4.73;;;;;;;;;;6202089;28;20030;-81
2022/07/10 04:40:59;;;;;;;7.03;4.22;;;;;;;;;;6201750;28;20026;-80
2022/07/10 04:43:59;;;;;;;6.63;3.60;;;;;;;;;;6206914;28;20073;-81
2022/07/10 04:47:00;;;;;;;7.50;4.70;;;;;;;;;;6200412;28;20041;-82
2022/07/10 04:50:00;;;;;;;8.80;5.83;;;;;;;;;;6204737;28;20478;-81
2022/07/10 04:53:00;;;;;;;8.17;5.30;;;;;;;;;;6205094;28;20014;-81
2022/07/10 04:56:02;;;;;;;9.23;5.13;;;;;;;;;;6200695;28;20018;-81
2022/07/10 04:59:02;;;;;;;9.23;4.93;;;;;;;;;;6204333;28;20018;-81
2022/07/10 05:02:02;;;;;;;9.32;4.95;;;;;;;;;;6204711;28;20096;-81
2022/07/10 05:05:03;;;;;;;7.72;4.78;;;;;;;;;;6205693;28;19995;-81
2022/07/10 05:08:03;;;;;;;10.23;5.20;;;;;;;;;;6197941;28;20029;-80
2022/07/10 05:11:03;;;;;;;10.20;4.30;;;;;;;;;;6201715;28;20015;-81
2022/07/10 05:14:03;;;;;;;8.13;4.37;;;;;;;;;;6201943;28;20038;-81
2022/07/10 05:17:04;;;;;;;6.67;4.20;;;;;;;;;;6206019;28;20058;-82
2022/07/10 05:20:04;;;;;;;7.83;3.87;;;;;;;;;;6197357;28;20092;-80
2022/07/10 05:23:04;;;;;;;5.90;3.53;;;;;;;;;;6194342;28;20014;-81
2022/07/10 05:26:05;;;;;;;9.53;4.53;;;;;;;;;;6222574;28;20018;-81
2022/07/10 05:29:05;;;;;;;7.00;4.07;;;;;;;;;;6206220;28;20040;-80
2022/07/10 05:32:06;;;;;;;6.97;4.13;;;;;;;;;;6207186;28;20014;-81
2022/07/10 05:35:06;;;;;;;5.90;3.47;;;;;;;;;;6222004;28;20052;-81
2022/07/10 05:38:06;;;;;;;6.20;3.20;;;;;;;;;;6203202;28;20025;-81
2022/07/10 05:41:07;;;;;;;7.43;3.30;;;;;;;;;;6205221;28;20014;-81
2022/07/10 05:44:07;;;;;;;4.13;2.65;;;;;;;;;;6205787;28;20017;-81
2022/07/10 05:47:07;;;;;;;3.30;2.67;;;;;;;;;;6203646;28;20029;-82
2022/07/10 05:50:08;;;;;;;3.80;1.90;;;;;;;;;;6208391;28;20033;-81
2022/07/10 05:53:08;;;;;;;2.63;1.90;;;;;;;;;;6195594;28;20025;-82
2022/07/10 05:56:08;;;;;;;4.07;2.37;;;;;;;;;;6198056;28;20285;-82
2022/07/10 05:59:09;;;;;;;2.20;2.00;;;;;;;;;;6214065;28;20478;-81
2022/07/10 06:02:09;;;;;;;3.43;2.20;;;;;;;;;;6199083;28;20050;-82
2022/07/10 06:05:09;;;;;;;2.57;2.27;;;;;;;;;;6204040;28;20757;-82
2022/07/10 06:08:11;;;;;;;4.23;1.80;;;;;;;;;;6200266;28;20026;-82
2022/07/10 06:11:11;;;;;;;1.98;1.77;;;;;;;;;;6201368;28;20022;-82
2022/07/10 06:14:12;;;;;;;4.97;1.63;;;;;;;;;;6200750;28;20041;-82
2022/07/10 06:17:12;;;;;;;3.10;1.57;;;;;;;;;;6201245;28;20108;-82
2022/07/10 06:20:12;;;;;;;2.43;1.50;;;;;;;;;;6207918;28;20073;-82
2022/07/10 06:23:12;;;;;;;2.27;1.10;;;;;;;;;;6202836;28;20018;-82
2022/07/10 06:26:13;;;;;;;4.03;1.85;;;;;;;;;;6195031;28;20081;-83
2022/07/10 06:29:13;;;;;;;1.60;1.10;;;;;;;;;;6198792;28;20106;-84
2022/07/10 06:32:13;;;;;;;1.70;1.30;;;;;;;;;;6199428;28;20028;-82
2022/07/10 06:35:13;;;;;;;1.92;1.35;;;;;;;;;;6196222;28;20072;-83
2022/07/10 06:38:13;;;;;;;1.98;1.27;;;;;;;;;;6206957;28;20022;-83
2022/07/10 06:41:14;;;;;;;3.93;1.67;;;;;;;;;;6202819;28;20046;-83
2022/07/10 06:44:14;;;;;;;5.07;2.00;;;;;;;;;;6198812;28;20481;-82
2022/07/10 06:50:34;;;;;;;2.72;1.40;;;;;;;;;;6207168;28;20026;-82
2022/07/10 06:53:35;;;;;;;5.43;1.43;;;;;;;;;;6221238;28;20114;-82
2022/07/10 06:56:35;;;;;;;4.03;1.40;;;;;;;;;;6197104;28;20022;-82
2022/07/10 06:59:35;;;;;;;2.63;1.30;;;;;;;;;;6192167;28;20034;-82
2022/07/10 07:02:35;;;;;;;3.57;1.20;;;;;;;;;;6197398;28;20026;-83
2022/07/10 07:05:36;;;;;;;3.43;1.70;;;;;;;;;;6199039;28;20026;-83
2022/07/10 07:08:36;;;;;;;3.77;1.50;;;;;;;;;;6202798;28;20093;-82
2022/07/10 07:11:36;;;;;;;1.33;1.23;;;;;;;;;;6197588;28;20105;-83
2022/07/10 07:14:36;;;;;;;3.07;1.03;;;;;;;;;;6200421;28;20025;-82
2022/07/10 07:24:24;;;;;;;4.32;1.10;;;;;;;;;;6239451;28;20026;-83
2022/07/10 07:27:25;;;;;;;4.90;1.38;;;;;;;;;;6227812;28;20080;-82
2022/07/10 07:30:26;;;;;;;3.60;1.47;;;;;;;;;;6207090;28;20026;-82
2022/07/10 07:33:26;;;;;;;4.03;1.17;;;;;;;;;;6167634;28;1073504;-82
2022/07/10 07:36:26;;;;;;;1.67;1.27;;;;;;;;;;6215818;28;20456;-81
2022/07/10 07:39:28;;;;;;;3.80;1.40;;;;;;;;;;6203231;28;20026;-83
2022/07/10 07:42:28;;;;;;;3.03;1.55;;;;;;;;;;6192689;28;20034;-82
2022/07/10 07:45:28;;;;;;;4.30;1.30;;;;;;;;;;6207157;28;20750;-83
2022/07/10 07:48:29;;;;;;;1.65;0.95;;;;;;;;;;6205270;28;20429;-83
2022/07/10 07:51:30;;;;;;;3.75;1.13;;;;;;;;;;6204158;28;20138;-83
2022/07/10 07:54:30;;;;;;;2.27;1.33;;;;;;;;;;6198926;28;20022;-82
2022/07/10 07:57:30;;;;;;;3.20;1.20;;;;;;;;;;6218067;28;20042;-82
2022/07/10 08:00:31;;;;;;;4.90;1.50;;;;;;;;;;6209397;28;20490;-82
2022/07/10 08:03:31;;;;;;;4.40;1.00;;;;;;;;;;6207462;28;20114;-82
2022/07/10 08:06:31;;;;;;;3.17;1.23;;;;;;;;;;6206984;28;20064;-83
2022/07/10 08:09:31;;;;;;;3.47;0.90;;;;;;;;;;6203967;28;20019;-83
2022/07/10 08:12:32;;;;;;;5.03;1.43;;;;;;;;;;6208846;28;20025;-83
2022/07/10 08:15:34;;;;;;;4.87;1.53;;;;;;;;;;6205319;28;20423;-83
2022/07/10 08:18:35;;;;;;;5.55;1.40;;;;;;;;;;6203739;28;20018;-84
2022/07/10 08:21:35;;;;;;;5.88;1.27;;;;;;;;;;6205020;28;20029;-83
2022/07/10 08:24:35;;;;;;;3.50;1.30;;;;;;;;;;6205325;28;20100;-82
2022/07/10 08:27:36;;;;;;;3.17;1.10;;;;;;;;;;6210393;28;20045;-83
2022/07/10 08:30:37;;;;;;;2.83;1.17;;;;;;;;;;6210397;28;20018;-83
2022/07/10 08:33:37;;;;;;;4.90;1.50;;;;;;;;;;6216285;28;20061;-83
2022/07/10 08:36:37;;;;;;;7.47;1.37;;;;;;;;;;6207430;28;20027;-84
2022/07/10 08:39:38;;;;;;;2.95;0.88;;;;;;;;;;6209550;28;20047;-83
2022/07/10 08:42:38;;;;;;;4.73;1.20;;;;;;;;;;6198598;28;20104;-84
2022/07/10 08:45:40;;;;;;;3.03;1.37;;;;;;;;;;6201063;28;20029;-84
2022/07/10 08:48:42;;;;;;;3.38;0.90;;;;;;;;;;6202972;28;20390;-83
2022/07/10 08:51:57;;;;;;;1.48;1.02;;;;;;;;;;6203499;28;20034;-82
2022/07/10 08:54:58;;;;;;;2.88;1.38;;;;;;;;;;6198356;28;20027;-83
2022/07/10 08:57:59;;;;;;;6.37;1.13;;;;;;;;;;6213200;28;20022;-83
2022/07/10 09:00:59;;;;;;;3.58;1.10;;;;;;;;;;6207890;28;20025;-83
2022/07/10 09:03:59;;;;;;;3.33;1.03;;;;;;;;;;6204455;28;20045;-83
2022/07/10 09:07:00;;;;;;;4.77;1.60;;;;;;;;;;6210839;28;20416;-83
2022/07/10 09:10:04;;;;;;;3.13;1.17;;;;;;;;;;6205688;28;20018;-83
2022/07/10 09:13:05;;;;;;;7.13;1.23;;;;;;;;;;6205278;28;20223;-83
2022/07/10 09:16:05;;;;;;;4.60;1.20;;;;;;;;;;6207924;28;20367;-83
2022/07/10 09:19:26;;;;;;;5.87;0.93;;;;;;;;;;6207474;28;20031;-83
2022/07/10 09:22:30;;;;;;;1.80;0.70;;;;;;;;;;6201116;28;20069;-83
2022/07/10 09:25:32;;;;;;;2.95;1.10;;;;;;;;;;6212686;28;20381;-83
2022/07/10 09:28:32;;;;;;;6.55;1.23;;;;;;;;;;6190913;28;20114;-83
2022/07/10 09:31:47;;;;;;;7.70;2.50;;;;;;;;;;6203432;28;20022;-82
2022/07/10 09:34:49;;;;;;;3.65;0.80;;;;;;;;;;6216930;28;20056;-83
2022/07/10 09:37:50;;;;;;;2.25;0.80;;;;;;;;;;6210485;28;20058;-83
2022/07/10 09:40:50;;;;;;;;;;;;;;;;;;6191525;28;20084;-83
2022/07/10 09:43:52;;;;;;;3.75;0.80;;;;;;;;;;6201825;28;19910;-83
2022/07/10 09:46:52;;;;;;;;;;;;;;;;;;6200412;28;20030;-83
2022/07/10 09:49:52;;;;;;;3.17;1.10;;;;;;;;;;6200760;28;19910;-83
2022/07/10 09:52:54;;;;;;;3.73;1.13;;;;;;;;;;6208072;28;20024;-83
2022/07/10 09:55:55;;;;;;;5.45;1.08;;;;;;;;;;6205247;28;20024;-83
2022/07/10 09:58:59;;;;;;;4.38;1.55;;;;;;;;;;6200529;28;20029;-83
2022/07/10 10:01:59;;;;;;;2.75;0.75;;;;;;;;;;6199761;28;20023;-83
2022/07/10 10:04:59;;;;;;;3.77;1.33;;;;;;;;;;6201860;28;20041;-83
2022/07/10 10:08:23;;;;;;;5.20;0.90;;;;;;;;;;6199546;28;20394;-83
2022/07/10 10:11:26;;;;;;;4.55;0.80;;;;;;;;;;6200914;28;20402;-82
2022/07/10 10:14:27;;;;;;;3.50;1.10;;;;;;;;;;6199666;28;20129;-83
2022/07/10 10:17:27;;;;;;;;;;;;;;;;;;6204816;28;20037;-82
2022/07/10 10:20:37;;;;;;;2.20;1.00;;;;;;;;;;6202567;28;19913;-83
2022/07/10 10:23:37;;;;;;;2.55;1.08;;;;;;;;;;6206389;28;20022;-83
2022/07/10 10:26:38;;;;;;;4.07;1.63;;;;;;;;;;6201350;28;20081;-82
2022/07/10 10:29:39;;;;;;;3.43;1.10;;;;;;;;;;6201980;28;20022;-83
2022/07/10 10:32:39;;;;;;;1.30;0.82;;;;;;;;;;6208587;28;20030;-83
2022/07/10 10:35:46;;;;;;;3.57;0.97;;;;;;;;;;6212190;28;20030;-83
2022/07/10 10:38:56;;;;;;;3.53;1.60;;;;;;;;;;6212372;28;20408;-83
2022/07/10 10:41:56;;;;;;;2.83;1.35;;;;;;;;;;6199165;28;20390;-83
2022/07/10 10:45:15;;;;;;;2.83;1.10;;;;;;;;;;6202435;28;20033;-83
2022/07/10 10:48:17;;;;;;;4.63;1.00;;;;;;;;;;6204412;28;20117;-83
2022/07/10 10:51:17;;;;;;;1.63;0.68;;;;;;;;;;6211365;28;20437;-83
2022/07/10 10:54:17;;;;;;;2.80;1.33;;;;;;;;;;6189683;28;20030;-83
2022/07/10 10:57:17;;;;;;;0.83;0.67;;;;;;;;;;6187639;28;20034;-83
2022/07/10 11:00:37;;;;;;;4.07;1.33;;;;;;;;;;6192016;28;20028;-83
2022/07/10 11:03:37;;;;;;;2.63;0.73;;;;;;;;;;6194456;28;20041;-83
2022/07/10 11:06:38;;;;;;;1.60;0.80;;;;;;;;;;6212758;28;20387;-83
2022/07/10 11:09:38;;;;;;;1.02;0.73;;;;;;;;;;6213258;28;20022;-81
2022/07/10 11:12:57;;;;;;;4.00;0.90;;;;;;;;;;6197020;28;20022;-81
2022/07/10 11:15:58;;;;;;;8.02;1.60;;;;;;;;;;6194639;28;20522;-81
2022/07/10 11:19:00;;;;;;;4.78;1.98;;;;;;;;;;6196635;28;20053;-81
2022/07/10 11:22:10;;;;;;;4.25;0.90;;;;;;;;;;6195753;28;20018;-81
2022/07/10 11:25:24;;;;;;;3.60;1.67;;;;;;;;;;6198150;28;20442;-81
2022/07/10 11:28:26;;;;;;;2.67;1.20;;;;;;;;;;6196903;28;20486;-81
2022/07/10 11:31:27;;;;;;;2.22;0.77;;;;;;;;;;6196732;28;20014;-81
2022/07/10 11:34:34;;;;;;;2.72;1.50;;;;;;;;;;6197446;28;20147;-81
2022/07/10 11:37:35;;;;;;;3.00;1.00;;;;;;;;;;6197389;28;20042;-81
2022/07/10 11:40:36;;;;;;;2.43;1.07;;;;;;;;;;6204650;28;20366;-81
2022/07/10 11:43:44;;;;;;;3.38;0.93;;;;;;;;;;6197038;28;20082;-81
2022/07/10 11:46:46;;;;;;;2.58;0.80;;;;;;;;;;6197716;28;20072;-81
2022/07/10 11:49:47;;;;;;;4.80;1.30;;;;;;;;;;6200144;28;20552;-81
2022/07/10 11:52:47;;;;;;;2.40;1.13;;;;;;;;;;6199927;28;20014;-81
2022/07/10 11:55:49;;;;;;;1.53;0.93;;;;;;;;;;6199446;28;20014;-81
2022/07/10 11:58:55;;;;;;;3.17;1.20;;;;;;;;;;6198068;28;20017;-80
2022/07/10 12:01:56;;;;;;;1.58;0.93;;;;;;;;;;6200776;28;20466;-80
2022/07/10 12:04:56;;;;;;;1.53;0.90;;;;;;;;;;6202671;28;20026;-81
2022/07/10 12:07:56;;;;;;;0.97;0.93;;;;;;;;;;6208273;28;20382;-81
2022/07/10 12:10:58;;;;;;;1.77;0.80;;;;;;;;;;6202543;28;20305;-81
2022/07/10 12:14:31;;;;;;;2.63;0.90;;;;;;;;;;6203210;28;20102;-81
2022/07/10 12:17:31;;;;;;;2.25;0.80;;;;;;;;;;6153931;28;20026;-81
2022/07/10 12:20:32;;;;;;;3.40;0.70;;;;;;;;;;6203208;28;20065;-81
2022/07/10 12:23:34;;;;;;;5.30;0.90;;;;;;;;;;6210794;28;20046;-81
2022/07/10 12:26:36;;;;;;;1.05;0.70;;;;;;;;;;6202007;28;20500;-81
2022/07/10 12:29:36;;;;;;;5.65;0.98;;;;;;;;;;6203717;28;20028;-81
2022/07/10 12:32:37;;;;;;;1.90;1.03;;;;;;;;;;6200182;28;20022;-80
2022/07/10 12:35:51;;;;;;;1.90;1.07;;;;;;;;;;6200909;28;20042;-81
2022/07/10 12:38:57;;;;;;;4.40;0.80;;;;;;;;;;6210994;28;20034;-81
2022/07/10 12:42:02;;;;;;;3.03;0.68;;;;;;;;;;6200931;28;20011;-81
2022/07/10 12:45:12;;;;;;;0.77;0.47;;;;;;;;;;6202317;28;20025;-81
2022/07/10 12:48:33;;;;;;;4.43;0.95;;;;;;;;;;6213058;28;20018;-81
2022/07/10 12:51:54;;;;;;;2.25;0.52;;;;;;;;;;6220441;28;20065;-81
2022/07/10 12:55:16;;;;;;;1.10;0.50;;;;;;;;;;6202473;28;20049;-81
2022/07/10 12:58:16;;;;;;;3.33;0.60;;;;;;;;;;6201188;28;20022;-80
2022/07/10 13:01:16;;;;;;;3.47;0.37;;;;;;;;;;6201836;28;20018;-81
2022/07/10 13:04:22;;;;;;;6.30;0.53;;;;;;;;;;6201458;28;20018;-81
2022/07/10 13:07:32;;;;;;;2.47;0.50;;;;;;;;;;6199856;28;20022;-81
2022/07/10 13:10:47;;;;;;;3.75;0.80;;;;;;;;;;6200576;28;20018;-81
2022/07/10 13:13:48;;;;;;;0.85;0.50;;;;;;;;;;6199587;28;20021;-81
2022/07/10 13:16:48;;;;;;;1.80;0.60;;;;;;;;;;6207534;28;20042;-80
2022/07/10 13:19:49;;;;;;;3.50;1.23;;;;;;;;;;6200124;28;20033;-80
2022/07/10 13:22:49;;;;;;;6.07;0.82;;;;;;;;;;6203049;28;20014;-81
2022/07/10 13:25:50;;;;;;;4.07;0.93;;;;;;;;;;6201156;28;20018;-81
2022/07/10 13:28:50;;;;;;;0.67;0.60;;;;;;;;;;6219723;28;20034;-80
2022/07/10 13:31:51;;;;;;;5.00;1.53;;;;;;;;;;6197489;28;20148;-80
2022/07/10 13:34:53;;;;;;;1.52;0.80;;;;;;;;;;6207901;28;20041;-80
2022/07/10 13:37:54;;;;;;;3.05;0.75;;;;;;;;;;6205702;28;20033;-81
2022/07/10 13:40:54;;;;;;;4.63;1.53;;;;;;;;;;6194763;28;20022;-81
2022/07/10 13:43:55;;;;;;;4.63;1.10;;;;;;;;;;6196575;28;20148;-80
2022/07/10 13:46:55;;;;;;;1.63;0.70;;;;;;;;;;6202083;28;20019;-80
2022/07/10 13:49:56;;;;;;;3.28;0.75;;;;;;;;;;6195946;28;20041;-80
2022/07/10 13:52:56;;;;;;;0.73;0.33;;;;;;;;;;6196376;28;20101;-81
2022/07/10 13:55:56;;;;;;;1.13;0.60;;;;;;;;;;6207362;28;20092;-80
2022/07/10 13:58:57;;;;;;;2.33;0.63;;;;;;;;;;6193870;28;20027;-80
2022/07/10 14:01:57;;;;;;;0.87;0.60;;;;;;;;;;6203791;28;20471;-81
2022/07/10 14:04:57;;;;;;;2.22;0.63;;;;;;;;;;6197168;28;20022;-81
2022/07/10 14:07:58;;;;;;;0.60;0.60;;;;;;;;;;6198387;28;20093;-81
2022/07/10 14:10:58;;;;;;;2.07;0.60;;;;;;;;;;6202737;28;20022;-81
2022/07/10 14:13:58;;;;;;;2.80;0.60;;;;;;;;;;6210559;28;20029;-81
2022/07/10 14:16:58;;;;;;;0.40;0.40;;;;;;;;;;6195095;28;20026;-80
2022/07/10 14:19:58;;;;;;;2.40;0.70;;;;;;;;;;6198495;28;20454;-81
2022/07/10 14:22:59;;;;;;;0.40;0.40;;;;;;;;;;6190231;28;20025;-80
2022/07/10 14:26:00;;;;;;;2.20;0.50;;;;;;;;;;6202187;28;20061;-80
2022/07/10 14:29:02;;;;;;;6.07;1.20;;;;;;;;;;6212246;28;20018;-80
2022/07/10 14:32:02;;;;;;;5.13;0.60;;;;;;;;;;6206338;28;20053;-80
2022/07/10 14:35:03;;;;;;;0.73;0.73;;;;;;;;;;6207213;28;20462;-80
2022/07/10 14:38:03;;;;;;;1.20;0.40;;;;;;;;;;6198266;28;20031;-80
2022/07/10 14:41:05;;;;;;;2.83;0.63;;;;;;;;;;6214216;28;20094;-80
2022/07/10 14:44:06;;;;;;;7.32;2.40;;;;;;;;;;6197197;28;20485;-80
2022/07/10 14:47:06;;;;;;;1.13;0.97;;;;;;;;;;6188146;28;20025;-80
2022/07/10 14:50:07;;;;;;;2.57;0.43;;;;;;;;;;6204159;28;20822;-80
2022/07/10 14:53:08;;;;;;;1.57;0.60;;;;;;;;;;6204644;28;20521;-80
2022/07/10 14:56:08;;;;;;;0.52;0.45;;;;;;;;;;6209251;28;20018;-80
2022/07/10 14:59:08;;;;;;;0.70;0.30;;;;;;;;;;6204655;28;20495;-80
2022/07/10 15:02:08;;;;;;;2.27;1.03;;;;;;;;;;6197380;28;20055;-80
2022/07/10 15:05:09;;;;;;;0.53;0.30;;;;;;;;;;6209223;28;20452;-80
2022/07/10 15:08:09;;;;;;;1.43;0.50;;;;;;;;;;6210043;28;20030;-80
2022/07/10 15:11:10;;;;;;;2.40;0.50;;;;;;;;;;6195037;28;20026;-80
2022/07/10 15:14:10;;;;;;;1.45;0.40;;;;;;;;;;6204984;28;20030;-80
2022/07/10 15:17:10;;;;;;;1.17;0.40;;;;;;;;;;6197030;28;20030;-79
2022/07/10 15:20:11;;;;;;;0.90;0.40;;;;;;;;;;6212613;28;20508;-79
2022/07/10 15:23:12;;;;;;;1.08;0.40;;;;;;;;;;6213888;28;20021;-79
2022/07/10 15:26:12;;;;;;;1.55;0.35;;;;;;;;;;6194009;28;20098;-79
2022/07/10 15:29:13;;;;;;;1.97;0.30;;;;;;;;;;6207854;28;20022;-79
2022/07/10 15:32:13;;;;;;;2.60;0.60;;;;;;;;;;6195230;28;20021;-80
2022/07/10 15:35:13;;;;;;;0.50;0.40;;;;;;;;;;6207303;28;20041;-80
2022/07/10 15:38:13;;;;;;;1.63;0.50;;;;;;;;;;6213221;28;20038;-79
2022/07/10 15:41:14;;;;;;;0.87;0.40;;;;;;;;;;6209477;28;20017;-79
2022/07/10 15:44:14;;;;;;;2.33;0.60;;;;;;;;;;6213674;28;20406;-79
2022/07/10 15:47:15;;;;;;;3.60;0.60;;;;;;;;;;6210785;28;20073;-79
2022/07/10 15:50:15;;;;;;;3.53;0.82;;;;;;;;;;6202274;28;20360;-79
2022/07/10 15:53:15;;;;;;;1.63;0.80;;;;;;;;;;6202268;28;20049;-79
2022/07/10 15:56:15;;;;;;;1.77;0.80;;;;;;;;;;6201479;28;20025;-79
2022/07/10 15:59:18;;;;;;;4.45;1.33;;;;;;;;;;6200381;28;20056;-79
2022/07/10 16:02:19;;;;;;;2.15;0.70;;;;;;;;;;6208970;28;20015;-80
2022/07/10 16:05:19;;;;;;;0.97;0.77;;;;;;;;;;6207284;28;20034;-79
2022/07/10 16:08:21;;;;;;;2.77;1.00;;;;;;;;;;6200525;28;20022;-80
2022/07/10 16:11:22;;;;;;;;;;;;;;;;;;6204051;28;20028;-79
2022/07/10 16:14:22;;;;;;;5.03;2.22;;;;;;;;;;6210329;28;20257;-79
2022/07/10 16:17:22;;;;;;;10.00;5.70;;;;;;;;;;6198141;28;20359;-78
2022/07/10 16:20:23;;;;;;;12.20;6.17;;;;;;;;;;6211910;28;20389;-79
2022/07/10 16:23:23;;;;;;;3.40;2.27;;;;;;;;;;6216382;28;20010;-79
2022/07/10 16:26:23;;;;;;;2.17;1.50;;;;;;;;;;6216051;28;20374;-79
2022/07/10 16:29:25;;;;;;;1.90;0.90;;;;;;;;;;6207442;28;20069;-79
2022/07/10 16:32:25;;;;;;;0.95;0.60;;;;;;;;;;6200457;28;20023;-79
2022/07/10 16:35:25;;;;;;;1.97;0.80;;;;;;;;;;6205021;28;20049;-79
2022/07/10 16:38:25;;;;;;;4.17;0.73;;;;;;;;;;6205647;28;20036;-78
2022/07/10 16:41:26;;;;;;;3.60;0.77;;;;;;;;;;6203596;28;20015;-78
2022/07/10 16:44:27;;;;;;;1.30;0.80;;;;;;;;;;6204558;28;20018;-78
2022/07/10 16:47:30;;;;;;;2.00;0.80;;;;;;;;;;6209167;28;20061;-78
2022/07/10 16:50:30;;;;;;;1.15;0.90;;;;;;;;;;6201664;28;20112;-79
2022/07/10 16:53:31;;;;;;;1.17;0.70;;;;;;;;;;6204095;28;20020;-79
2022/07/10 16:56:31;;;;;;;2.27;0.93;;;;;;;;;;6198557;28;20049;-78
2022/07/10 16:59:31;;;;;;;1.13;0.87;;;;;;;;;;6200601;28;20061;-79
2022/07/10 17:02:31;;;;;;;2.60;1.10;;;;;;;;;;6208059;28;20018;-79
2022/07/10 17:05:34;;;;;;;1.87;1.20;;;;;;;;;;6210943;28;20018;-78
2022/07/10 17:08:34;;;;;;;2.15;1.00;;;;;;;;;;6206511;28;20025;-78
2022/07/10 17:11:34;;;;;;;5.50;0.90;;;;;;;;;;6200822;28;20386;-78
2022/07/10 17:14:34;;;;;;;0.93;0.80;;;;;;;;;;6200331;28;20109;-79
2022/07/10 17:17:36;;;;;;;2.20;1.07;;;;;;;;;;6196937;28;20026;-79
2022/07/10 17:20:36;;;;;;;3.25;0.90;;;;;;;;;;6196084;28;20378;-79
2022/07/10 17:23:36;;;;;;;1.00;0.70;;;;;;;;;;6196309;28;20030;-78
2022/07/10 17:26:36;;;;;;;1.90;0.70;;;;;;;;;;6196783;28;20015;-78
2022/07/10 17:29:37;;;;;;;2.30;0.87;;;;;;;;;;6196398;28;20023;-78
2022/07/10 17:32:38;;;;;;;5.37;1.13;;;;;;;;;;6197792;28;20022;-79
2022/07/10 17:35:38;;;;;;;1.50;1.00;;;;;;;;;;6195396;28;20297;-79
2022/07/10 17:38:38;;;;;;;2.10;1.00;;;;;;;;;;6189316;28;20027;-79
2022/07/10 17:41:39;;;;;;;1.40;1.30;;;;;;;;;;6195073;28;20014;-78
2022/07/10 17:44:39;;;;;;;5.17;1.67;;;;;;;;;;6203850;28;20014;-78
2022/07/10 17:47:41;;;;;;;2.28;1.70;;;;;;;;;;6204249;28;20485;-78
2022/07/10 17:50:42;;;;;;;3.75;1.08;;;;;;;;;;6207085;28;20540;-78
2022/07/10 17:53:42;;;;;;;2.35;1.10;;;;;;;;;;6198821;28;20454;-78
2022/07/10 17:56:43;;;;;;;4.15;1.40;;;;;;;;;;6212094;28;20087;-78
2022/07/10 17:59:43;;;;;;;5.50;1.27;;;;;;;;;;6192377;28;20026;-79
2022/07/10 18:02:44;;;;;;;2.40;1.60;;;;;;;;;;6202573;28;20017;-79
2022/07/10 18:05:47;;;;;;;2.53;1.13;;;;;;;;;;6184519;28;20025;-79
2022/07/10 18:08:48;;;;;;;3.25;1.20;;;;;;;;;;6205849;28;20026;-79
2022/07/10 18:11:48;;;;;;;3.05;1.40;;;;;;;;;;6195522;28;20017;-78
2022/07/10 18:14:48;;;;;;;7.47;1.17;;;;;;;;;;6200639;28;20072;-78